Terminal Aerodrome Forecast
Issued by NWS

Home | Current Version | Previous Version | Graphics & Text | Print | Product List | Glossary On
Versions: 1 2 3 4 5 6 7 8 9 10 11 12 13 14 15
581
FTUS45 KGGW 132320
TAFSDY
TAF
KSDY 132320Z 1400/1424 12008KT P6SM SKC
     FM140800 12004KT P6SM SKC
     FM141500 13008KT P6SM BKN110
     FM141700 13010KT P6SM VCSH BKN100=

USA.gov is the U.S. government's official web portal to all federal, state and local government web resources and services.